createdAt,value
2022-11-30T00:01:23.674Z,7.93
2022-11-30T00:03:55.875Z,8.05
2022-11-30T00:06:24.575Z,6.97
2022-11-30T00:08:56.494Z,6.57
2022-11-30T00:11:26.231Z,7.40
2022-11-30T00:13:54.082Z,6.55
2022-11-30T00:16:21.938Z,8.70
2022-11-30T00:18:49.619Z,6.82
2022-11-30T00:21:17.199Z,6.55
2022-11-30T00:23:46.603Z,6.30
2022-11-30T00:26:19.659Z,5.40
2022-11-30T00:28:47.828Z,5.97
2022-11-30T00:31:17.370Z,5.88
2022-11-30T00:33:45.402Z,5.45
2022-11-30T00:36:18.183Z,6.30
2022-11-30T00:38:45.999Z,5.68
2022-11-30T00:41:14.347Z,5.57
2022-11-30T00:43:42.171Z,5.00
2022-11-30T00:46:10.443Z,5.50
2022-11-30T00:48:39.031Z,4.82
2022-11-30T00:51:08.451Z,5.00
2022-11-30T00:53:36.441Z,4.30
2022-11-30T00:56:04.817Z,4.63
2022-11-30T00:58:32.442Z,5.45
2022-11-30T01:01:00.054Z,5.22
2022-11-30T01:03:27.574Z,5.30
2022-11-30T01:05:55.180Z,5.38
2022-11-30T01:08:22.604Z,4.57
2022-11-30T01:10:57.786Z,4.40
2022-11-30T01:13:25.317Z,4.60
2022-11-30T01:15:52.844Z,4.40
2022-11-30T01:18:20.380Z,3.72
2022-11-30T01:20:47.784Z,3.72
2022-11-30T01:23:15.266Z,4.40
2022-11-30T01:25:42.733Z,3.58
2022-11-30T01:28:11.219Z,3.78
2022-11-30T01:30:38.687Z,3.03
2022-11-30T01:33:06.214Z,3.63
2022-11-30T01:35:33.646Z,4.13
2022-11-30T01:38:01.143Z,3.65
2022-11-30T01:40:28.605Z,3.33
2022-11-30T01:42:56.114Z,4.68
2022-11-30T01:45:23.605Z,4.80
2022-11-30T01:47:56.808Z,3.50
2022-11-30T01:50:32.313Z,4.07
2022-11-30T01:52:59.944Z,3.00
2022-11-30T01:55:36.369Z,4.22
2022-11-30T01:58:15.564Z,4.15
2022-11-30T02:00:46.970Z,4.15
2022-11-30T02:03:32.745Z,3.28
2022-11-30T02:06:01.098Z,4.38
2022-11-30T02:08:30.510Z,3.67
2022-11-30T02:11:05.875Z,3.53
2022-11-30T02:13:59.939Z,2.60
2022-11-30T02:16:27.369Z,2.75
2022-11-30T02:19:13.600Z,4.07
2022-11-30T02:22:02.723Z,3.38
2022-11-30T02:25:00.991Z,3.10
2022-11-30T02:27:47.126Z,3.38
2022-11-30T02:33:07.325Z,3.83
2022-11-30T02:35:38.927Z,3.25
2022-11-30T02:38:06.642Z,3.38
2022-11-30T02:40:34.136Z,3.50
2022-11-30T02:43:04.329Z,3.25
2022-11-30T02:46:06.457Z,3.10
2022-11-30T02:49:05.272Z,3.58
2022-11-30T02:51:35.828Z,3.38
2022-11-30T02:54:03.626Z,3.80
2022-11-30T02:56:31.557Z,3.25
2022-11-30T02:58:59.218Z,2.88
2022-11-30T03:01:26.677Z,2.53
2022-11-30T03:03:54.202Z,3.10
2022-11-30T03:06:21.589Z,2.95
2022-11-30T03:08:49.045Z,3.03
2022-11-30T03:11:16.441Z,3.20
2022-11-30T03:13:43.964Z,2.38
2022-11-30T03:16:13.272Z,2.55
2022-11-30T03:18:41.128Z,2.88
2022-11-30T03:21:10.595Z,2.22
2022-11-30T03:23:39.149Z,3.13
2022-11-30T03:26:08.349Z,3.40
2022-11-30T03:28:36.970Z,2.58
2022-11-30T03:31:04.954Z,2.45
2022-11-30T03:33:32.429Z,3.45
2022-11-30T03:36:05.729Z,3.28
2022-11-30T03:38:33.542Z,3.15
2022-11-30T03:41:06.580Z,3.08
2022-11-30T03:43:34.420Z,3.03
2022-11-30T03:46:01.998Z,4.35
2022-11-30T03:48:29.563Z,3.15
2022-11-30T03:50:57.285Z,3.28
2022-11-30T03:53:25.802Z,3.85
2022-11-30T03:55:59.017Z,4.88
2022-11-30T03:58:27.169Z,3.75
2022-11-30T04:01:01.896Z,4.40
2022-11-30T04:03:30.105Z,4.97
2022-11-30T04:05:58.606Z,5.10
2022-11-30T04:08:27.020Z,3.45
2022-11-30T04:10:55.939Z,3.30
2022-11-30T04:13:24.301Z,4.20
2022-11-30T04:15:53.591Z,3.80
2022-11-30T04:18:23.897Z,4.55
2022-11-30T04:20:53.192Z,4.20
2022-11-30T04:23:21.462Z,3.53
2022-11-30T04:25:49.182Z,3.50
2022-11-30T04:28:17.451Z,3.17
2022-11-30T04:30:46.216Z,3.88
2022-11-30T04:33:15.194Z,3.75
2022-11-30T04:35:47.090Z,3.50
2022-11-30T04:38:14.937Z,3.17
2022-11-30T04:40:43.148Z,3.55
2022-11-30T04:43:11.945Z,3.38
2022-11-30T04:45:39.883Z,3.20
2022-11-30T04:48:08.117Z,4.32
2022-11-30T04:50:36.621Z,5.03
2022-11-30T04:53:04.471Z,4.07
2022-11-30T04:55:32.458Z,5.20
2022-11-30T04:58:00.024Z,4.50
2022-11-30T05:00:27.458Z,4.63
2022-11-30T05:02:56.603Z,4.13
2022-11-30T05:05:24.312Z,3.47
2022-11-30T05:07:56.478Z,4.25
2022-11-30T05:10:24.682Z,3.97
2022-11-30T05:12:52.425Z,3.10
2022-11-30T05:15:20.551Z,4.22
2022-11-30T05:17:48.103Z,3.13
2022-11-30T05:20:15.884Z,4.40
2022-11-30T05:22:43.514Z,3.30
2022-11-30T05:25:11.051Z,3.30
2022-11-30T05:27:38.729Z,3.47
2022-11-30T05:30:07.349Z,2.83
2022-11-30T05:32:35.349Z,2.75
2022-11-30T05:35:02.807Z,2.92
2022-11-30T05:37:30.322Z,3.00
2022-11-30T05:39:57.826Z,3.53
2022-11-30T05:42:25.380Z,4.35
2022-11-30T05:44:52.853Z,4.00
2022-11-30T05:47:20.268Z,3.45
2022-11-30T05:49:47.695Z,3.47
2022-11-30T05:52:15.129Z,3.33
2022-11-30T05:54:42.602Z,4.05
2022-11-30T05:57:09.976Z,2.92
2022-11-30T05:59:37.459Z,2.75
2022-11-30T06:02:04.975Z,2.67
2022-11-30T06:04:34.208Z,2.72
2022-11-30T06:07:01.714Z,2.80
2022-11-30T06:09:29.853Z,3.25
2022-11-30T06:11:57.291Z,3.33
2022-11-30T06:14:24.740Z,2.90
2022-11-30T06:16:52.280Z,3.10
2022-11-30T06:19:19.817Z,3.85
2022-11-30T06:21:47.283Z,2.65
2022-11-30T06:24:14.839Z,2.72
2022-11-30T06:26:42.232Z,3.63
2022-11-30T06:29:10.454Z,2.97
2022-11-30T06:31:37.928Z,2.15
2022-11-30T06:34:05.476Z,2.63
2022-11-30T06:36:36.266Z,2.70
2022-11-30T06:39:04.439Z,2.10
2022-11-30T06:41:31.894Z,2.45
2022-11-30T06:43:59.398Z,3.28
2022-11-30T06:46:27.077Z,2.58
2022-11-30T06:48:54.639Z,2.30
2022-11-30T06:51:22.037Z,2.50
2022-11-30T06:53:49.547Z,2.08
2022-11-30T06:56:17.007Z,2.10
2022-11-30T06:58:44.478Z,2.40
2022-11-30T07:01:14.508Z,2.47
2022-11-30T07:03:42.414Z,3.25
2022-11-30T07:06:12.274Z,2.88
2022-11-30T07:08:40.830Z,3.53
2022-11-30T07:11:10.030Z,2.75
2022-11-30T07:13:38.000Z,2.47
2022-11-30T07:16:07.114Z,2.67
2022-11-30T07:18:35.084Z,2.08
2022-11-30T07:21:04.292Z,2.33
2022-11-30T07:23:55.950Z,2.85
2022-11-30T07:26:25.145Z,3.13
2022-11-30T07:28:58.760Z,3.17
2022-11-30T07:31:32.043Z,2.40
2022-11-30T07:34:05.161Z,2.97
2022-11-30T07:36:33.335Z,3.50
2022-11-30T07:39:00.951Z,2.90
2022-11-30T07:41:28.552Z,3.10
2022-11-30T07:43:55.961Z,3.60
2022-11-30T07:46:23.537Z,4.60
2022-11-30T07:48:51.285Z,4.00
2022-11-30T07:51:22.886Z,3.05
2022-11-30T07:53:50.681Z,3.28
2022-11-30T07:56:20.195Z,2.78
2022-11-30T07:58:49.303Z,3.63
2022-11-30T08:01:19.401Z,3.25
2022-11-30T08:03:47.224Z,3.45
2022-11-30T08:06:22.587Z,4.15
2022-11-30T08:08:52.579Z,4.07
2022-11-30T08:11:22.733Z,4.47
2022-11-30T08:13:50.603Z,3.25
2022-11-30T08:16:20.753Z,3.58
2022-11-30T08:18:48.524Z,3.17
2022-11-30T08:21:18.745Z,3.92
2022-11-30T08:23:52.583Z,3.58
2022-11-30T08:26:23.175Z,4.22
2022-11-30T08:28:52.167Z,3.67
2022-11-30T08:31:22.502Z,3.55
2022-11-30T08:33:50.468Z,3.35
2022-11-30T08:36:20.246Z,2.55
2022-11-30T08:38:48.710Z,3.00
2022-11-30T08:41:19.757Z,3.38
2022-11-30T08:43:48.336Z,3.53
2022-11-30T08:57:33.696Z,3.40
2022-11-30T09:00:01.288Z,3.83
2022-11-30T09:02:28.768Z,3.70
2022-11-30T09:04:56.259Z,3.15
2022-11-30T09:07:23.732Z,2.90
2022-11-30T09:09:51.234Z,3.60
2022-11-30T09:12:18.730Z,2.78
2022-11-30T09:14:54.012Z,2.60
2022-11-30T09:17:25.218Z,3.08
2022-11-30T09:19:52.774Z,2.97
2022-11-30T09:22:20.245Z,2.45
2022-11-30T09:24:47.769Z,2.35
2022-11-30T09:27:15.431Z,2.83
2022-11-30T09:29:42.921Z,2.67
2022-11-30T09:32:10.584Z,2.55
2022-11-30T09:34:38.087Z,2.10
2022-11-30T09:37:05.844Z,2.60
2022-11-30T09:39:33.252Z,2.75
2022-11-30T09:42:32.776Z,3.33
2022-11-30T09:45:22.168Z,2.30
2022-11-30T09:48:07.509Z,3.13
2022-11-30T09:50:41.672Z,2.90
2022-11-30T09:53:24.578Z,2.88
2022-11-30T09:55:56.795Z,2.70
2022-11-30T09:58:36.964Z,2.88
2022-11-30T10:01:10.332Z,3.25
2022-11-30T10:03:38.615Z,3.55
2022-11-30T10:06:13.572Z,3.72
2022-11-30T10:09:06.251Z,5.15
2022-11-30T10:12:06.081Z,4.72
2022-11-30T10:15:00.125Z,5.13
2022-11-30T10:17:49.086Z,5.43
2022-11-30T10:20:28.345Z,6.60
2022-11-30T10:23:13.593Z,5.97
2022-11-30T10:25:50.707Z,5.35
2022-11-30T10:28:47.121Z,5.95
2022-11-30T10:31:17.576Z,5.07
2022-11-30T10:33:51.488Z,5.40
2022-11-30T10:36:37.156Z,4.60
2022-11-30T10:39:33.576Z,5.03
2022-11-30T10:42:17.737Z,6.15
2022-11-30T10:45:14.990Z,5.43
2022-11-30T10:48:06.895Z,5.63
2022-11-30T10:50:34.786Z,4.20
2022-11-30T10:53:02.792Z,6.95
2022-11-30T10:55:35.899Z,5.93
2022-11-30T10:58:14.759Z,7.07
2022-11-30T11:00:50.566Z,6.55
2022-11-30T11:03:25.039Z,5.88
2022-11-30T11:06:14.561Z,7.25
2022-11-30T11:08:42.733Z,7.03
2022-11-30T11:11:38.896Z,7.82
2022-11-30T11:14:26.956Z,6.93
2022-11-30T11:17:05.222Z,6.45
2022-11-30T11:19:37.910Z,6.05
2022-11-30T11:22:16.960Z,7.10
2022-11-30T11:24:45.156Z,7.63
2022-11-30T11:27:30.836Z,5.80
2022-11-30T11:30:28.327Z,9.18
2022-11-30T11:33:00.433Z,6.43
2022-11-30T11:35:33.948Z,8.32
2022-11-30T11:38:01.458Z,6.95
2022-11-30T11:40:28.995Z,6.78
2022-11-30T11:42:58.371Z,9.10
2022-11-30T11:45:28.797Z,9.43
2022-11-30T11:47:59.741Z,9.35
2022-11-30T11:53:24.395Z,7.32
2022-11-30T11:56:04.802Z,8.88
2022-11-30T11:58:46.530Z,6.95
2022-11-30T12:01:39.704Z,9.40
2022-11-30T12:04:33.069Z,6.90
2022-11-30T12:07:04.452Z,6.30
2022-11-30T12:09:40.570Z,6.43
2022-11-30T12:12:12.923Z,8.27
2022-11-30T12:14:40.500Z,8.50
2022-11-30T12:17:36.074Z,6.53
2022-11-30T12:20:14.045Z,6.80
2022-11-30T12:22:47.336Z,6.25
2022-11-30T12:25:27.813Z,7.18
2022-11-30T12:28:11.606Z,7.55
2022-11-30T12:30:41.893Z,7.35
2022-11-30T12:33:54.638Z,7.88
2022-11-30T12:36:39.576Z,6.60
2022-11-30T12:39:26.831Z,8.98
2022-11-30T12:41:57.782Z,6.43
2022-11-30T12:44:45.104Z,7.55
2022-11-30T12:47:33.823Z,7.40
2022-11-30T12:50:27.181Z,6.90
2022-11-30T12:52:54.607Z,7.20
2022-11-30T12:55:38.322Z,6.47
2022-11-30T12:58:31.055Z,6.18
2022-11-30T13:01:36.611Z,6.38
2022-11-30T13:04:34.720Z,6.25
2022-11-30T13:07:11.921Z,6.45
2022-11-30T13:09:51.964Z,6.70
2022-11-30T13:12:36.129Z,5.90
2022-11-30T13:15:25.916Z,5.80
2022-11-30T13:17:55.442Z,7.35
2022-11-30T13:20:33.350Z,6.93
2022-11-30T13:23:11.342Z,7.93
2022-11-30T13:26:11.475Z,5.88
2022-11-30T13:28:41.716Z,7.10
2022-11-30T13:31:18.132Z,5.35
2022-11-30T13:33:54.759Z,6.28
2022-11-30T13:36:22.235Z,6.95
2022-11-30T13:39:09.942Z,6.00
2022-11-30T13:41:38.244Z,8.23
2022-11-30T13:44:20.237Z,6.20
2022-11-30T13:46:53.429Z,6.20
2022-11-30T13:49:39.359Z,6.13
2022-11-30T13:52:22.658Z,6.13
2022-11-30T13:54:57.374Z,6.97
2022-11-30T13:57:24.851Z,5.30
2022-11-30T13:59:57.410Z,6.93
2022-11-30T14:05:40.224Z,7.38
2022-11-30T14:08:10.107Z,6.88
2022-11-30T14:10:45.970Z,8.60
2022-11-30T14:13:14.267Z,7.78
2022-11-30T14:15:44.486Z,9.13
2022-11-30T14:18:11.977Z,7.47
2022-11-30T14:20:45.219Z,8.18
2022-11-30T14:23:29.690Z,9.73
2022-11-30T14:26:07.571Z,5.88
2022-11-30T14:28:44.840Z,7.25
2022-11-30T14:31:19.845Z,7.28
2022-11-30T14:34:02.636Z,7.23
2022-11-30T14:36:43.395Z,7.22
2022-11-30T14:39:47.124Z,7.65
2022-11-30T14:42:24.834Z,8.05
2022-11-30T14:44:53.363Z,9.90
2022-11-30T14:47:32.348Z,11.13
2022-11-30T14:50:02.937Z,10.48
2022-11-30T14:52:52.145Z,9.70
2022-11-30T14:55:28.273Z,9.88
2022-11-30T14:58:20.188Z,7.82
2022-11-30T15:00:48.229Z,7.50
2022-11-30T15:03:26.693Z,7.93
2022-11-30T15:06:05.287Z,11.65
2022-11-30T15:08:37.991Z,9.88
2022-11-30T15:11:08.074Z,9.75
2022-11-30T15:13:40.666Z,9.02
2022-11-30T15:16:26.553Z,9.32
2022-11-30T15:18:56.048Z,10.43
2022-11-30T15:21:25.337Z,11.38
2022-11-30T15:23:55.414Z,10.57
2022-11-30T15:26:37.167Z,10.63
2022-11-30T15:29:08.437Z,10.25
2022-11-30T15:31:39.074Z,9.93
2022-11-30T15:34:16.646Z,10.90
2022-11-30T15:36:44.463Z,9.63
2022-11-30T15:39:21.001Z,8.85
2022-11-30T15:42:03.032Z,9.48
2022-11-30T15:44:33.353Z,9.38
2022-11-30T15:47:02.771Z,10.07
2022-11-30T15:49:32.676Z,9.05
2022-11-30T15:52:15.736Z,10.70
2022-11-30T15:54:55.329Z,10.90
2022-11-30T15:57:25.929Z,9.45
2022-11-30T16:00:19.391Z,11.10
2022-11-30T16:02:47.013Z,10.25
2022-11-30T16:05:15.712Z,13.13
2022-11-30T16:08:00.072Z,10.77
2022-11-30T16:10:36.823Z,10.20
2022-11-30T16:13:05.377Z,9.05
2022-11-30T16:15:36.245Z,10.73
2022-11-30T16:18:18.899Z,9.65
2022-11-30T16:20:50.374Z,10.25
2022-11-30T16:23:19.267Z,9.80
2022-11-30T16:25:48.590Z,9.18
2022-11-30T16:28:17.586Z,8.88
2022-11-30T16:30:46.357Z,9.80
2022-11-30T16:33:14.505Z,10.68
2022-11-30T16:35:52.765Z,9.40
2022-11-30T16:38:21.008Z,10.07
2022-11-30T16:40:48.625Z,12.25
2022-11-30T16:43:16.433Z,13.18
2022-11-30T16:45:44.370Z,11.10
2022-11-30T16:48:12.138Z,12.63
2022-11-30T16:50:40.294Z,12.93
2022-11-30T16:53:14.951Z,11.32
2022-11-30T16:55:43.000Z,10.18
2022-11-30T16:58:10.618Z,10.63
2022-11-30T17:00:40.112Z,11.45
2022-11-30T17:03:28.859Z,8.98
2022-11-30T17:05:56.353Z,9.88
2022-11-30T17:08:23.928Z,10.15
2022-11-30T17:10:53.438Z,8.60
2022-11-30T17:13:21.748Z,9.13
2022-11-30T17:15:49.559Z,8.95
2022-11-30T17:18:17.349Z,8.95
2022-11-30T17:20:44.862Z,11.85
2022-11-30T17:23:12.339Z,8.73
2022-11-30T17:25:39.942Z,9.02
2022-11-30T17:28:07.359Z,9.48
2022-11-30T17:30:34.973Z,11.02
2022-11-30T17:33:02.513Z,10.77
2022-11-30T17:35:30.097Z,8.02
2022-11-30T17:37:57.729Z,9.15
2022-11-30T17:40:25.338Z,10.75
2022-11-30T17:42:52.831Z,10.27
2022-11-30T17:45:20.535Z,9.20
2022-11-30T17:47:48.112Z,8.13
2022-11-30T17:50:15.764Z,10.93
2022-11-30T17:52:43.272Z,9.40
2022-11-30T17:55:10.872Z,10.63
2022-11-30T17:57:38.775Z,8.40
2022-11-30T18:00:07.286Z,8.55
2022-11-30T18:02:34.814Z,9.25
2022-11-30T18:05:02.323Z,11.80
2022-11-30T18:07:30.025Z,10.18
2022-11-30T18:09:58.674Z,10.45
2022-11-30T18:12:26.109Z,11.48
2022-11-30T18:14:53.602Z,10.10
2022-11-30T18:17:21.193Z,9.65
2022-11-30T18:19:48.654Z,9.65
2022-11-30T18:22:16.165Z,9.18
2022-11-30T18:24:43.777Z,9.43
2022-11-30T18:27:12.019Z,10.02
2022-11-30T18:29:39.640Z,10.45
2022-11-30T18:32:08.178Z,10.43
2022-11-30T18:34:35.824Z,9.90
2022-11-30T18:37:03.475Z,10.50
2022-11-30T18:39:31.173Z,8.88
2022-11-30T18:41:58.581Z,9.73
2022-11-30T18:44:26.124Z,10.05
2022-11-30T18:46:53.654Z,10.10
2022-11-30T18:49:22.685Z,11.27
2022-11-30T18:51:50.194Z,9.70
2022-11-30T18:54:19.298Z,8.98
2022-11-30T18:56:46.754Z,8.57
2022-11-30T18:59:15.226Z,11.20
2022-11-30T19:01:43.325Z,10.93
2022-11-30T19:04:11.967Z,10.27
2022-11-30T19:06:41.560Z,10.60
2022-11-30T19:09:12.090Z,10.07
2022-11-30T19:11:41.037Z,9.43
2022-11-30T19:14:12.052Z,8.98
2022-11-30T19:16:40.250Z,9.25
2022-11-30T19:19:12.273Z,10.57
2022-11-30T19:21:41.995Z,11.02
2022-11-30T19:24:09.716Z,9.57
2022-11-30T19:26:40.075Z,9.60
2022-11-30T19:29:08.143Z,10.18
2022-11-30T19:31:35.698Z,8.98
2022-11-30T19:34:09.110Z,9.27
2022-11-30T19:36:39.792Z,10.93
2022-11-30T19:39:07.268Z,10.27
2022-11-30T19:41:34.788Z,10.32
2022-11-30T19:44:04.148Z,11.27
2022-11-30T19:46:33.335Z,11.93
2022-11-30T19:49:02.059Z,10.35
2022-11-30T19:51:31.466Z,9.27
2022-11-30T19:54:01.995Z,9.85
2022-11-30T19:56:32.243Z,8.32
2022-11-30T19:59:04.444Z,9.57
2022-11-30T20:01:33.834Z,9.65
2022-11-30T20:04:01.478Z,10.38
2022-11-30T20:06:35.958Z,9.68
2022-11-30T20:09:07.839Z,9.98
2022-11-30T20:11:35.577Z,11.35
2022-11-30T20:14:03.525Z,14.15
2022-11-30T20:16:31.826Z,12.00
2022-11-30T20:19:01.200Z,14.25
2022-11-30T20:21:31.369Z,12.07
2022-11-30T20:24:01.502Z,12.88
2022-11-30T20:26:37.477Z,11.18
2022-11-30T20:31:35.729Z,9.43
2022-11-30T20:34:03.368Z,9.15
2022-11-30T20:36:31.126Z,9.40
2022-11-30T20:38:59.720Z,9.57
2022-11-30T20:41:27.522Z,9.23
2022-11-30T20:43:55.967Z,9.18
2022-11-30T20:46:29.739Z,10.00
2022-11-30T20:48:57.938Z,9.95
2022-11-30T20:51:32.511Z,9.50
2022-11-30T20:54:09.114Z,11.17
2022-11-30T20:56:37.555Z,9.52
2022-11-30T20:59:08.568Z,7.97
2022-11-30T21:01:36.446Z,8.43
2022-11-30T21:04:04.200Z,8.40
2022-11-30T21:06:31.912Z,7.82
2022-11-30T21:09:00.111Z,8.60
2022-11-30T21:11:29.211Z,7.05
2022-11-30T21:13:57.758Z,6.55
2022-11-30T21:16:28.865Z,7.25
2022-11-30T21:18:58.847Z,7.82
2022-11-30T21:21:32.121Z,6.93
2022-11-30T21:24:01.886Z,6.78
2022-11-30T21:26:31.686Z,6.55
2022-11-30T21:29:21.820Z,6.07
2022-11-30T21:31:49.364Z,7.15
2022-11-30T21:34:16.941Z,7.15
2022-11-30T21:36:44.535Z,6.82
2022-11-30T21:39:15.752Z,6.28
2022-11-30T21:41:43.397Z,5.82
2022-11-30T21:44:12.921Z,6.50
2022-11-30T21:46:40.882Z,7.00
2022-11-30T21:49:09.906Z,6.82
2022-11-30T21:51:37.815Z,5.53
2022-11-30T21:54:08.000Z,5.65
2022-11-30T21:56:38.088Z,6.40
2022-11-30T21:59:07.294Z,5.70
2022-11-30T22:01:40.376Z,5.20
2022-11-30T22:04:10.502Z,5.25
2022-11-30T22:06:39.525Z,5.88
2022-11-30T22:09:11.694Z,6.00
2022-11-30T22:11:41.419Z,5.07
2022-11-30T22:14:15.989Z,5.20
2022-11-30T22:16:44.049Z,4.53
2022-11-30T22:19:11.626Z,5.20
2022-11-30T22:21:39.660Z,5.28
2022-11-30T22:24:10.792Z,5.18
2022-11-30T22:26:40.751Z,5.35
2022-11-30T22:29:11.642Z,5.07
2022-11-30T22:31:41.128Z,4.63
2022-11-30T22:34:09.318Z,5.93
2022-11-30T22:36:38.970Z,5.43
2022-11-30T22:39:10.914Z,5.30
2022-11-30T22:41:39.984Z,5.70
2022-11-30T22:44:07.866Z,6.68
2022-11-30T22:46:37.597Z,5.40
2022-11-30T22:49:07.777Z,4.82
2022-11-30T22:51:37.606Z,4.32
2022-11-30T22:54:06.370Z,4.22
2022-11-30T22:56:41.544Z,4.22
2022-11-30T22:59:12.209Z,4.65
2022-11-30T23:01:44.101Z,4.60
2022-11-30T23:04:14.198Z,4.32
2022-11-30T23:06:43.503Z,3.88
2022-11-30T23:09:16.465Z,4.60
2022-11-30T23:11:44.534Z,4.20
2022-11-30T23:14:12.355Z,4.13
2022-11-30T23:16:40.406Z,4.10
2022-11-30T23:19:09.210Z,3.47
2022-11-30T23:21:41.657Z,3.42
2022-11-30T23:24:20.726Z,3.40
2022-11-30T23:26:48.841Z,3.40
2022-11-30T23:29:17.545Z,2.90
2022-11-30T23:31:46.321Z,2.97
2022-11-30T23:34:21.251Z,2.80
2022-11-30T23:36:49.801Z,2.70
2022-11-30T23:39:19.197Z,2.85
2022-11-30T23:41:47.301Z,2.67
2022-11-30T23:44:14.916Z,2.38
2022-11-30T23:46:42.637Z,2.40
2022-11-30T23:49:11.834Z,2.40
2022-11-30T23:51:39.400Z,2.30
2022-11-30T23:54:06.922Z,2.03
2022-11-30T23:56:34.601Z,2.47
2022-11-30T23:59:02.036Z,2.13
